sensor_id;sensor_type;location;lat;lon;timestamp;temperature;humidity
5621;DHT22;2832;50.864;12.186;2022-10-16T00:02:15;18.70;99.90
5621;DHT22;2832;50.864;12.186;2022-10-16T00:04:44;18.70;99.90
5621;DHT22;2832;50.864;12.186;2022-10-16T00:07:14;18.70;99.90
5621;DHT22;2832;50.864;12.186;2022-10-16T00:09:42;18.70;99.90
5621;DHT22;2832;50.864;12.186;2022-10-16T00:12:09;18.70;99.90
5621;DHT22;2832;50.864;12.186;2022-10-16T00:14:39;18.70;99.90
5621;DHT22;2832;50.864;12.186;2022-10-16T00:17:08;18.80;99.90
5621;DHT22;2832;50.864;12.186;2022-10-16T00:19:35;18.70;99.90
5621;DHT22;2832;50.864;12.186;2022-10-16T00:22:04;18.70;99.90
5621;DHT22;2832;50.864;12.186;2022-10-16T00:24:33;18.70;99.90
5621;DHT22;2832;50.864;12.186;2022-10-16T00:27:01;18.70;99.90
5621;DHT22;2832;50.864;12.186;2022-10-16T00:29:29;18.70;99.90
5621;DHT22;2832;50.864;12.186;2022-10-16T00:31:57;18.70;99.90
5621;DHT22;2832;50.864;12.186;2022-10-16T00:34:25;18.70;99.90
5621;DHT22;2832;50.864;12.186;2022-10-16T00:36:52;18.80;99.90
5621;DHT22;2832;50.864;12.186;2022-10-16T00:39:22;18.80;99.90
5621;DHT22;2832;50.864;12.186;2022-10-16T00:41:51;18.80;99.90
5621;DHT22;2832;50.864;12.186;2022-10-16T00:44:45;18.80;99.90
5621;DHT22;2832;50.864;12.186;2022-10-16T00:47:19;18.70;99.90
5621;DHT22;2832;50.864;12.186;2022-10-16T00:49:50;18.70;99.90
5621;DHT22;2832;50.864;12.186;2022-10-16T00:52:19;18.70;99.90
5621;DHT22;2832;50.864;12.186;2022-10-16T00:54:50;18.70;99.90
5621;DHT22;2832;50.864;12.186;2022-10-16T00:57:19;18.70;99.90
5621;DHT22;2832;50.864;12.186;2022-10-16T00:59:47;18.70;99.90
5621;DHT22;2832;50.864;12.186;2022-10-16T01:02:17;18.70;99.90
5621;DHT22;2832;50.864;12.186;2022-10-16T01:04:48;18.70;99.90
5621;DHT22;2832;50.864;12.186;2022-10-16T01:07:26;18.60;99.90
5621;DHT22;2832;50.864;12.186;2022-10-16T01:10:03;18.70;99.90
5621;DHT22;2832;50.864;12.186;2022-10-16T01:12:40;18.70;99.90
5621;DHT22;2832;50.864;12.186;2022-10-16T01:15:17;18.70;99.90
5621;DHT22;2832;50.864;12.186;2022-10-16T01:17:51;18.60;99.90
5621;DHT22;2832;50.864;12.186;2022-10-16T01:20:27;18.70;99.90
5621;DHT22;2832;50.864;12.186;2022-10-16T01:23:13;18.60;99.90
5621;DHT22;2832;50.864;12.186;2022-10-16T01:26:09;18.60;99.90
5621;DHT22;2832;50.864;12.186;2022-10-16T01:28:44;18.60;99.90
5621;DHT22;2832;50.864;12.186;2022-10-16T01:31:15;18.60;99.90
5621;DHT22;2832;50.864;12.186;2022-10-16T01:33:53;18.60;99.90
5621;DHT22;2832;50.864;12.186;2022-10-16T01:36:31;18.60;99.90
5621;DHT22;2832;50.864;12.186;2022-10-16T01:39:03;18.60;99.90
5621;DHT22;2832;50.864;12.186;2022-10-16T01:41:34;18.60;99.90
5621;DHT22;2832;50.864;12.186;2022-10-16T01:44:07;18.60;99.90
5621;DHT22;2832;50.864;12.186;2022-10-16T01:46:39;18.70;99.90
5621;DHT22;2832;50.864;12.186;2022-10-16T01:49:09;18.60;99.90
5621;DHT22;2832;50.864;12.186;2022-10-16T01:51:37;18.60;99.90
5621;DHT22;2832;50.864;12.186;2022-10-16T01:54:08;18.70;99.90
5621;DHT22;2832;50.864;12.186;2022-10-16T01:56:37;18.60;99.90
5621;DHT22;2832;50.864;12.186;2022-10-16T01:59:11;18.60;99.90
5621;DHT22;2832;50.864;12.186;2022-10-16T02:01:44;18.70;99.90
5621;DHT22;2832;50.864;12.186;2022-10-16T02:04:17;18.60;99.90
5621;DHT22;2832;50.864;12.186;2022-10-16T02:06:46;18.60;99.90
5621;DHT22;2832;50.864;12.186;2022-10-16T02:09:13;18.60;99.90
5621;DHT22;2832;50.864;12.186;2022-10-16T02:11:44;18.60;99.90
5621;DHT22;2832;50.864;12.186;2022-10-16T02:14:13;18.50;99.90
5621;DHT22;2832;50.864;12.186;2022-10-16T02:16:43;18.50;99.90
5621;DHT22;2832;50.864;12.186;2022-10-16T02:19:11;18.50;99.90
5621;DHT22;2832;50.864;12.186;2022-10-16T02:21:43;18.50;99.90
5621;DHT22;2832;50.864;12.186;2022-10-16T02:24:16;18.60;99.90
5621;DHT22;2832;50.864;12.186;2022-10-16T02:26:50;18.60;99.90
5621;DHT22;2832;50.864;12.186;2022-10-16T02:29:23;18.60;99.90
5621;DHT22;2832;50.864;12.186;2022-10-16T02:31:55;18.60;99.90
5621;DHT22;2832;50.864;12.186;2022-10-16T02:34:26;18.60;99.90
5621;DHT22;2832;50.864;12.186;2022-10-16T02:36:55;18.60;99.90
5621;DHT22;2832;50.864;12.186;2022-10-16T02:39:24;18.60;99.90
5621;DHT22;2832;50.864;12.186;2022-10-16T02:41:54;18.60;99.90
5621;DHT22;2832;50.864;12.186;2022-10-16T02:44:23;18.50;99.90
5621;DHT22;2832;50.864;12.186;2022-10-16T02:46:50;18.50;99.90
5621;DHT22;2832;50.864;12.186;2022-10-16T02:49:18;18.50;99.90
5621;DHT22;2832;50.864;12.186;2022-10-16T02:51:46;18.50;99.90
5621;DHT22;2832;50.864;12.186;2022-10-16T02:54:13;18.50;99.90
5621;DHT22;2832;50.864;12.186;2022-10-16T02:56:41;18.50;99.90
5621;DHT22;2832;50.864;12.186;2022-10-16T02:59:09;18.50;99.90
5621;DHT22;2832;50.864;12.186;2022-10-16T03:01:38;18.50;99.90
5621;DHT22;2832;50.864;12.186;2022-10-16T03:04:06;18.50;99.90
5621;DHT22;2832;50.864;12.186;2022-10-16T03:06:34;18.50;99.90
5621;DHT22;2832;50.864;12.186;2022-10-16T03:09:02;18.50;99.90
5621;DHT22;2832;50.864;12.186;2022-10-16T03:11:30;18.50;99.90
5621;DHT22;2832;50.864;12.186;2022-10-16T03:13:57;18.50;99.90
5621;DHT22;2832;50.864;12.186;2022-10-16T03:16:25;18.50;99.90
5621;DHT22;2832;50.864;12.186;2022-10-16T03:18:54;18.40;99.90
5621;DHT22;2832;50.864;12.186;2022-10-16T03:21:21;18.50;99.90
5621;DHT22;2832;50.864;12.186;2022-10-16T03:23:49;18.50;99.90
5621;DHT22;2832;50.864;12.186;2022-10-16T03:26:17;18.50;99.90
5621;DHT22;2832;50.864;12.186;2022-10-16T03:28:44;18.50;99.90
5621;DHT22;2832;50.864;12.186;2022-10-16T03:31:12;18.50;99.90
5621;DHT22;2832;50.864;12.186;2022-10-16T03:33:40;18.50;99.90
5621;DHT22;2832;50.864;12.186;2022-10-16T03:36:09;18.50;99.90
5621;DHT22;2832;50.864;12.186;2022-10-16T03:38:37;18.50;99.90
5621;DHT22;2832;50.864;12.186;2022-10-16T03:41:05;18.60;99.90
5621;DHT22;2832;50.864;12.186;2022-10-16T03:43:34;18.60;99.90
5621;DHT22;2832;50.864;12.186;2022-10-16T03:46:01;18.50;99.90
5621;DHT22;2832;50.864;12.186;2022-10-16T03:48:30;18.50;99.90
5621;DHT22;2832;50.864;12.186;2022-10-16T03:50:59;18.50;99.90
5621;DHT22;2832;50.864;12.186;2022-10-16T03:53:28;18.50;99.90
5621;DHT22;2832;50.864;12.186;2022-10-16T03:55:56;18.50;99.90
5621;DHT22;2832;50.864;12.186;2022-10-16T03:58:24;18.50;99.90
5621;DHT22;2832;50.864;12.186;2022-10-16T04:00:52;18.50;99.90
5621;DHT22;2832;50.864;12.186;2022-10-16T04:03:19;18.50;99.90
5621;DHT22;2832;50.864;12.186;2022-10-16T04:05:47;18.50;99.90
5621;DHT22;2832;50.864;12.186;2022-10-16T04:08:15;18.40;99.90
5621;DHT22;2832;50.864;12.186;2022-10-16T04:10:44;18.50;99.90
5621;DHT22;2832;50.864;12.186;2022-10-16T04:13:12;18.50;99.90
5621;DHT22;2832;50.864;12.186;2022-10-16T04:15:40;18.50;99.90
5621;DHT22;2832;50.864;12.186;2022-10-16T04:18:08;18.40;99.90
5621;DHT22;2832;50.864;12.186;2022-10-16T04:20:35;18.50;99.90
5621;DHT22;2832;50.864;12.186;2022-10-16T04:23:04;18.50;99.90
5621;DHT22;2832;50.864;12.186;2022-10-16T04:25:32;18.50;99.90
5621;DHT22;2832;50.864;12.186;2022-10-16T04:28:01;18.40;99.90
5621;DHT22;2832;50.864;12.186;2022-10-16T04:30:30;18.50;99.90
5621;DHT22;2832;50.864;12.186;2022-10-16T04:32:59;18.40;99.90
5621;DHT22;2832;50.864;12.186;2022-10-16T04:35:27;18.40;99.90
5621;DHT22;2832;50.864;12.186;2022-10-16T04:37:56;18.40;99.90
5621;DHT22;2832;50.864;12.186;2022-10-16T04:40:24;18.40;99.90
5621;DHT22;2832;50.864;12.186;2022-10-16T04:42:52;18.50;99.90
5621;DHT22;2832;50.864;12.186;2022-10-16T04:45:21;18.50;99.90
5621;DHT22;2832;50.864;12.186;2022-10-16T04:47:48;18.50;99.90
5621;DHT22;2832;50.864;12.186;2022-10-16T04:50:16;18.50;99.90
5621;DHT22;2832;50.864;12.186;2022-10-16T04:52:44;18.50;99.90
5621;DHT22;2832;50.864;12.186;2022-10-16T04:55:11;18.50;99.90
5621;DHT22;2832;50.864;12.186;2022-10-16T04:57:39;18.40;99.90
5621;DHT22;2832;50.864;12.186;2022-10-16T05:00:08;18.50;99.90
5621;DHT22;2832;50.864;12.186;2022-10-16T05:02:38;18.40;99.90
5621;DHT22;2832;50.864;12.186;2022-10-16T05:05:06;18.40;99.90
5621;DHT22;2832;50.864;12.186;2022-10-16T05:07:34;18.40;99.90
5621;DHT22;2832;50.864;12.186;2022-10-16T05:10:01;18.40;99.90
5621;DHT22;2832;50.864;12.186;2022-10-16T05:12:32;18.40;99.90
5621;DHT22;2832;50.864;12.186;2022-10-16T05:15:00;18.40;99.90
5621;DHT22;2832;50.864;12.186;2022-10-16T05:17:28;18.40;99.90
5621;DHT22;2832;50.864;12.186;2022-10-16T05:19:56;18.30;99.90
5621;DHT22;2832;50.864;12.186;2022-10-16T05:22:24;18.30;99.90
5621;DHT22;2832;50.864;12.186;2022-10-16T05:24:52;18.30;99.90
5621;DHT22;2832;50.864;12.186;2022-10-16T05:27:20;18.40;99.90
5621;DHT22;2832;50.864;12.186;2022-10-16T05:29:48;18.40;99.90
5621;DHT22;2832;50.864;12.186;2022-10-16T05:32:18;18.40;99.90
5621;DHT22;2832;50.864;12.186;2022-10-16T05:34:45;18.40;99.90
5621;DHT22;2832;50.864;12.186;2022-10-16T05:37:15;18.40;99.90
5621;DHT22;2832;50.864;12.186;2022-10-16T05:39:42;18.30;99.90
5621;DHT22;2832;50.864;12.186;2022-10-16T05:42:10;18.30;99.90
5621;DHT22;2832;50.864;12.186;2022-10-16T05:44:38;18.30;99.90
5621;DHT22;2832;50.864;12.186;2022-10-16T05:47:05;18.30;99.90
5621;DHT22;2832;50.864;12.186;2022-10-16T05:49:33;18.30;99.90
5621;DHT22;2832;50.864;12.186;2022-10-16T05:52:01;18.30;99.90
5621;DHT22;2832;50.864;12.186;2022-10-16T05:54:31;18.30;99.90
5621;DHT22;2832;50.864;12.186;2022-10-16T05:56:58;18.30;99.90
5621;DHT22;2832;50.864;12.186;2022-10-16T05:59:26;18.30;99.90
5621;DHT22;2832;50.864;12.186;2022-10-16T06:01:53;18.30;99.90
5621;DHT22;2832;50.864;12.186;2022-10-16T06:04:22;18.30;99.90
5621;DHT22;2832;50.864;12.186;2022-10-16T06:06:49;18.30;99.90
5621;DHT22;2832;50.864;12.186;2022-10-16T06:09:17;18.30;99.90
5621;DHT22;2832;50.864;12.186;2022-10-16T06:11:46;18.30;99.90
5621;DHT22;2832;50.864;12.186;2022-10-16T06:14:14;18.30;99.90
5621;DHT22;2832;50.864;12.186;2022-10-16T06:16:42;18.30;99.90
5621;DHT22;2832;50.864;12.186;2022-10-16T06:19:09;18.20;99.90
5621;DHT22;2832;50.864;12.186;2022-10-16T06:21:37;18.30;99.90
5621;DHT22;2832;50.864;12.186;2022-10-16T06:24:05;18.20;99.90
5621;DHT22;2832;50.864;12.186;2022-10-16T06:26:33;18.30;99.90
5621;DHT22;2832;50.864;12.186;2022-10-16T06:29:02;18.30;99.90
5621;DHT22;2832;50.864;12.186;2022-10-16T06:31:29;18.30;99.90
5621;DHT22;2832;50.864;12.186;2022-10-16T06:34:00;18.20;99.90
5621;DHT22;2832;50.864;12.186;2022-10-16T06:36:31;18.20;99.90
5621;DHT22;2832;50.864;12.186;2022-10-16T06:38:58;18.30;99.90
5621;DHT22;2832;50.864;12.186;2022-10-16T06:41:26;18.30;99.90
5621;DHT22;2832;50.864;12.186;2022-10-16T06:43:54;18.30;99.90
5621;DHT22;2832;50.864;12.186;2022-10-16T06:46:24;18.30;99.90
5621;DHT22;2832;50.864;12.186;2022-10-16T06:48:53;18.30;99.90
5621;DHT22;2832;50.864;12.186;2022-10-16T06:51:22;18.20;99.90
5621;DHT22;2832;50.864;12.186;2022-10-16T06:53:52;18.30;99.90
5621;DHT22;2832;50.864;12.186;2022-10-16T06:56:21;18.20;99.90
5621;DHT22;2832;50.864;12.186;2022-10-16T06:58:50;18.20;99.90
5621;DHT22;2832;50.864;12.186;2022-10-16T07:01:19;18.20;99.90
5621;DHT22;2832;50.864;12.186;2022-10-16T07:03:48;18.20;99.90
5621;DHT22;2832;50.864;12.186;2022-10-16T07:06:18;18.20;99.90
5621;DHT22;2832;50.864;12.186;2022-10-16T07:08:46;18.20;99.90
5621;DHT22;2832;50.864;12.186;2022-10-16T07:11:16;18.20;99.90
5621;DHT22;2832;50.864;12.186;2022-10-16T07:13:45;18.20;99.90
5621;DHT22;2832;50.864;12.186;2022-10-16T07:16:15;18.20;99.90
5621;DHT22;2832;50.864;12.186;2022-10-16T07:18:45;18.20;99.90
5621;DHT22;2832;50.864;12.186;2022-10-16T07:21:20;18.30;99.90
5621;DHT22;2832;50.864;12.186;2022-10-16T07:23:55;18.30;99.90
5621;DHT22;2832;50.864;12.186;2022-10-16T07:26:24;18.20;99.90
5621;DHT22;2832;50.864;12.186;2022-10-16T07:28:53;18.20;99.90
5621;DHT22;2832;50.864;12.186;2022-10-16T07:31:21;18.20;99.90
5621;DHT22;2832;50.864;12.186;2022-10-16T07:33:50;18.20;99.90
5621;DHT22;2832;50.864;12.186;2022-10-16T07:36:20;18.20;99.90
5621;DHT22;2832;50.864;12.186;2022-10-16T07:38:48;18.20;99.90
5621;DHT22;2832;50.864;12.186;2022-10-16T07:41:18;18.20;99.90
5621;DHT22;2832;50.864;12.186;2022-10-16T07:43:47;18.30;99.90
5621;DHT22;2832;50.864;12.186;2022-10-16T07:46:16;18.30;99.90
5621;DHT22;2832;50.864;12.186;2022-10-16T07:48:45;18.20;99.90
5621;DHT22;2832;50.864;12.186;2022-10-16T07:51:17;18.20;99.90
5621;DHT22;2832;50.864;12.186;2022-10-16T07:53:47;18.20;99.90
5621;DHT22;2832;50.864;12.186;2022-10-16T07:56:17;18.20;99.90
5621;DHT22;2832;50.864;12.186;2022-10-16T07:58:45;18.20;99.90
5621;DHT22;2832;50.864;12.186;2022-10-16T08:01:14;18.20;99.90
5621;DHT22;2832;50.864;12.186;2022-10-16T08:03:42;18.20;99.90
5621;DHT22;2832;50.864;12.186;2022-10-16T08:06:10;18.30;99.90
5621;DHT22;2832;50.864;12.186;2022-10-16T08:08:41;18.20;99.90
5621;DHT22;2832;50.864;12.186;2022-10-16T08:11:12;18.30;99.90
5621;DHT22;2832;50.864;12.186;2022-10-16T08:13:41;18.20;99.90
5621;DHT22;2832;50.864;12.186;2022-10-16T08:16:09;18.20;99.90
5621;DHT22;2832;50.864;12.186;2022-10-16T08:18:38;18.20;99.90
5621;DHT22;2832;50.864;12.186;2022-10-16T08:21:11;18.20;99.90
5621;DHT22;2832;50.864;12.186;2022-10-16T08:23:39;18.20;99.90
5621;DHT22;2832;50.864;12.186;2022-10-16T08:26:08;18.20;99.90
5621;DHT22;2832;50.864;12.186;2022-10-16T08:28:38;18.20;99.90
5621;DHT22;2832;50.864;12.186;2022-10-16T08:31:08;18.20;99.90
5621;DHT22;2832;50.864;12.186;2022-10-16T08:33:37;18.30;99.90
5621;DHT22;2832;50.864;12.186;2022-10-16T08:36:06;18.30;99.90
5621;DHT22;2832;50.864;12.186;2022-10-16T08:38:34;18.20;99.90
5621;DHT22;2832;50.864;12.186;2022-10-16T08:41:14;18.30;99.90
5621;DHT22;2832;50.864;12.186;2022-10-16T08:44:02;18.20;99.90
5621;DHT22;2832;50.864;12.186;2022-10-16T08:46:42;18.40;99.90
5621;DHT22;2832;50.864;12.186;2022-10-16T08:49:14;18.40;99.90
5621;DHT22;2832;50.864;12.186;2022-10-16T08:51:42;18.30;99.90
5621;DHT22;2832;50.864;12.186;2022-10-16T08:54:23;18.30;99.90
5621;DHT22;2832;50.864;12.186;2022-10-16T08:56:54;18.30;99.90
5621;DHT22;2832;50.864;12.186;2022-10-16T08:59:27;18.30;99.90
5621;DHT22;2832;50.864;12.186;2022-10-16T09:01:55;18.20;99.90
5621;DHT22;2832;50.864;12.186;2022-10-16T09:04:51;18.30;99.90
5621;DHT22;2832;50.864;12.186;2022-10-16T09:07:25;18.30;99.90
5621;DHT22;2832;50.864;12.186;2022-10-16T09:10:17;18.40;99.90
5621;DHT22;2832;50.864;12.186;2022-10-16T09:12:53;18.50;99.90
5621;DHT22;2832;50.864;12.186;2022-10-16T09:15:31;18.50;99.90
5621;DHT22;2832;50.864;12.186;2022-10-16T09:18:03;18.50;99.90
5621;DHT22;2832;50.864;12.186;2022-10-16T09:20:39;18.40;99.90
5621;DHT22;2832;50.864;12.186;2022-10-16T09:23:16;18.40;99.90
5621;DHT22;2832;50.864;12.186;2022-10-16T09:25:47;18.50;99.90
5621;DHT22;2832;50.864;12.186;2022-10-16T09:28:16;18.50;99.90
5621;DHT22;2832;50.864;12.186;2022-10-16T09:30:45;18.50;99.90
5621;DHT22;2832;50.864;12.186;2022-10-16T09:33:15;18.50;99.90
5621;DHT22;2832;50.864;12.186;2022-10-16T09:35:44;18.40;99.90
5621;DHT22;2832;50.864;12.186;2022-10-16T09:38:22;18.40;99.90
5621;DHT22;2832;50.864;12.186;2022-10-16T09:40:50;18.40;99.90
5621;DHT22;2832;50.864;12.186;2022-10-16T09:43:24;18.50;99.90
5621;DHT22;2832;50.864;12.186;2022-10-16T09:46:00;18.50;99.90
5621;DHT22;2832;50.864;12.186;2022-10-16T09:48:31;18.40;99.90
5621;DHT22;2832;50.864;12.186;2022-10-16T09:51:03;18.40;99.90
5621;DHT22;2832;50.864;12.186;2022-10-16T09:53:43;18.50;99.90
5621;DHT22;2832;50.864;12.186;2022-10-16T09:56:20;18.70;99.90
5621;DHT22;2832;50.864;12.186;2022-10-16T09:58:50;18.70;99.90
5621;DHT22;2832;50.864;12.186;2022-10-16T10:01:23;18.80;99.90
5621;DHT22;2832;50.864;12.186;2022-10-16T10:03:57;18.80;99.90
5621;DHT22;2832;50.864;12.186;2022-10-16T10:06:29;18.70;99.90
5621;DHT22;2832;50.864;12.186;2022-10-16T10:09:03;18.60;99.90
5621;DHT22;2832;50.864;12.186;2022-10-16T10:11:53;18.70;99.90
5621;DHT22;2832;50.864;12.186;2022-10-16T10:14:30;18.70;99.90
5621;DHT22;2832;50.864;12.186;2022-10-16T10:17:11;18.60;99.90
5621;DHT22;2832;50.864;12.186;2022-10-16T10:19:40;18.60;99.90
5621;DHT22;2832;50.864;12.186;2022-10-16T10:22:23;18.60;99.90
5621;DHT22;2832;50.864;12.186;2022-10-16T10:25:19;18.60;99.90
5621;DHT22;2832;50.864;12.186;2022-10-16T10:27:58;18.80;99.90
5621;DHT22;2832;50.864;12.186;2022-10-16T10:30:32;18.70;99.90
5621;DHT22;2832;50.864;12.186;2022-10-16T10:33:14;18.80;99.90
5621;DHT22;2832;50.864;12.186;2022-10-16T10:35:50;18.70;99.90
5621;DHT22;2832;50.864;12.186;2022-10-16T10:38:30;18.70;99.90
5621;DHT22;2832;50.864;12.186;2022-10-16T10:41:08;18.70;99.90
5621;DHT22;2832;50.864;12.186;2022-10-16T10:43:52;18.70;99.90
5621;DHT22;2832;50.864;12.186;2022-10-16T10:46:31;18.70;99.90
5621;DHT22;2832;50.864;12.186;2022-10-16T10:52:13;18.70;99.90
5621;DHT22;2832;50.864;12.186;2022-10-16T10:54:51;18.60;99.90
5621;DHT22;2832;50.864;12.186;2022-10-16T10:57:29;18.70;99.90
5621;DHT22;2832;50.864;12.186;2022-10-16T11:00:13;18.70;99.90
5621;DHT22;2832;50.864;12.186;2022-10-16T11:02:50;18.70;99.90
5621;DHT22;2832;50.864;12.186;2022-10-16T11:05:42;18.60;99.90
5621;DHT22;2832;50.864;12.186;2022-10-16T11:08:18;18.70;99.90
5621;DHT22;2832;50.864;12.186;2022-10-16T11:10:53;18.70;99.90
5621;DHT22;2832;50.864;12.186;2022-10-16T11:13:31;18.80;99.90
5621;DHT22;2832;50.864;12.186;2022-10-16T11:16:07;18.70;99.90
5621;DHT22;2832;50.864;12.186;2022-10-16T11:18:45;18.80;99.90
5621;DHT22;2832;50.864;12.186;2022-10-16T11:21:16;18.80;99.90
5621;DHT22;2832;50.864;12.186;2022-10-16T11:23:51;18.70;99.90
5621;DHT22;2832;50.864;12.186;2022-10-16T11:26:21;18.70;99.90
5621;DHT22;2832;50.864;12.186;2022-10-16T11:28:51;18.80;99.90
5621;DHT22;2832;50.864;12.186;2022-10-16T11:31:28;18.80;99.90
5621;DHT22;2832;50.864;12.186;2022-10-16T11:34:04;18.80;99.90
5621;DHT22;2832;50.864;12.186;2022-10-16T11:36:38;18.80;99.90
5621;DHT22;2832;50.864;12.186;2022-10-16T11:39:16;18.90;99.90
5621;DHT22;2832;50.864;12.186;2022-10-16T11:41:49;18.90;99.90
5621;DHT22;2832;50.864;12.186;2022-10-16T11:44:43;18.90;99.90
5621;DHT22;2832;50.864;12.186;2022-10-16T11:47:30;18.80;99.90
5621;DHT22;2832;50.864;12.186;2022-10-16T11:50:02;18.80;99.90
5621;DHT22;2832;50.864;12.186;2022-10-16T11:52:38;18.80;99.90
5621;DHT22;2832;50.864;12.186;2022-10-16T11:55:16;18.90;99.90
5621;DHT22;2832;50.864;12.186;2022-10-16T11:57:47;18.90;99.90
5621;DHT22;2832;50.864;12.186;2022-10-16T12:00:21;18.80;99.90
5621;DHT22;2832;50.864;12.186;2022-10-16T12:02:57;18.80;99.90
5621;DHT22;2832;50.864;12.186;2022-10-16T12:05:33;18.80;99.90
5621;DHT22;2832;50.864;12.186;2022-10-16T12:08:08;18.90;99.90
5621;DHT22;2832;50.864;12.186;2022-10-16T12:10:41;18.90;99.90
5621;DHT22;2832;50.864;12.186;2022-10-16T12:13:32;19.00;99.90
5621;DHT22;2832;50.864;12.186;2022-10-16T12:16:20;18.90;99.90
5621;DHT22;2832;50.864;12.186;2022-10-16T12:18:50;18.90;99.90
5621;DHT22;2832;50.864;12.186;2022-10-16T12:21:31;19.00;99.90
5621;DHT22;2832;50.864;12.186;2022-10-16T12:24:00;18.90;99.90
5621;DHT22;2832;50.864;12.186;2022-10-16T12:26:32;18.90;99.90
5621;DHT22;2832;50.864;12.186;2022-10-16T12:29:17;18.90;99.90
5621;DHT22;2832;50.864;12.186;2022-10-16T12:31:48;18.90;99.90
5621;DHT22;2832;50.864;12.186;2022-10-16T12:34:22;18.90;99.90
5621;DHT22;2832;50.864;12.186;2022-10-16T12:36:50;18.90;99.90
5621;DHT22;2832;50.864;12.186;2022-10-16T12:39:21;19.00;99.90
5621;DHT22;2832;50.864;12.186;2022-10-16T12:42:04;19.00;99.90
5621;DHT22;2832;50.864;12.186;2022-10-16T12:44:35;19.00;99.90
5621;DHT22;2832;50.864;12.186;2022-10-16T12:47:18;19.00;99.90
5621;DHT22;2832;50.864;12.186;2022-10-16T12:49:49;19.00;99.90
5621;DHT22;2832;50.864;12.186;2022-10-16T12:52:27;19.00;99.90
5621;DHT22;2832;50.864;12.186;2022-10-16T12:54:57;19.10;99.90
5621;DHT22;2832;50.864;12.186;2022-10-16T12:57:38;19.10;99.90
5621;DHT22;2832;50.864;12.186;2022-10-16T13:00:17;19.10;99.90
5621;DHT22;2832;50.864;12.186;2022-10-16T13:03:08;19.10;99.90
5621;DHT22;2832;50.864;12.186;2022-10-16T13:05:57;19.10;99.90
5621;DHT22;2832;50.864;12.186;2022-10-16T13:08:41;19.10;99.90
5621;DHT22;2832;50.864;12.186;2022-10-16T13:11:19;19.10;99.90
5621;DHT22;2832;50.864;12.186;2022-10-16T13:16:52;19.10;99.90
5621;DHT22;2832;50.864;12.186;2022-10-16T13:19:28;19.10;99.90
5621;DHT22;2832;50.864;12.186;2022-10-16T13:22:05;19.10;99.90
5621;DHT22;2832;50.864;12.186;2022-10-16T13:24:53;19.10;99.90
5621;DHT22;2832;50.864;12.186;2022-10-16T13:27:30;19.10;99.90
5621;DHT22;2832;50.864;12.186;2022-10-16T13:30:13;19.10;99.90
5621;DHT22;2832;50.864;12.186;2022-10-16T13:32:45;19.10;99.90
5621;DHT22;2832;50.864;12.186;2022-10-16T13:35:23;19.20;99.90
5621;DHT22;2832;50.864;12.186;2022-10-16T13:37:51;19.30;99.90
5621;DHT22;2832;50.864;12.186;2022-10-16T13:40:22;19.30;99.90
5621;DHT22;2832;50.864;12.186;2022-10-16T13:42:51;19.30;99.90
5621;DHT22;2832;50.864;12.186;2022-10-16T13:45:23;19.40;99.90
5621;DHT22;2832;50.864;12.186;2022-10-16T13:48:01;19.30;99.90
5621;DHT22;2832;50.864;12.186;2022-10-16T13:50:29;19.20;99.90
5621;DHT22;2832;50.864;12.186;2022-10-16T13:53:04;19.30;99.90
5621;DHT22;2832;50.864;12.186;2022-10-16T13:55:32;19.30;99.90
5621;DHT22;2832;50.864;12.186;2022-10-16T13:58:07;19.20;99.90
5621;DHT22;2832;50.864;12.186;2022-10-16T14:00:39;19.20;99.90
5621;DHT22;2832;50.864;12.186;2022-10-16T14:03:15;19.20;99.90
5621;DHT22;2832;50.864;12.186;2022-10-16T14:05:48;19.30;99.90
5621;DHT22;2832;50.864;12.186;2022-10-16T14:08:16;19.30;99.90
5621;DHT22;2832;50.864;12.186;2022-10-16T14:10:48;19.30;99.90
5621;DHT22;2832;50.864;12.186;2022-10-16T14:13:19;19.40;99.90
5621;DHT22;2832;50.864;12.186;2022-10-16T14:15:52;19.40;99.90
5621;DHT22;2832;50.864;12.186;2022-10-16T14:18:25;19.40;99.90
5621;DHT22;2832;50.864;12.186;2022-10-16T14:20:53;19.30;99.90
5621;DHT22;2832;50.864;12.186;2022-10-16T14:23:28;19.40;99.90
5621;DHT22;2832;50.864;12.186;2022-10-16T14:26:06;19.40;99.90
5621;DHT22;2832;50.864;12.186;2022-10-16T14:28:41;19.50;99.90
5621;DHT22;2832;50.864;12.186;2022-10-16T14:31:31;19.40;99.90
5621;DHT22;2832;50.864;12.186;2022-10-16T14:34:00;19.30;99.90
5621;DHT22;2832;50.864;12.186;2022-10-16T14:36:29;19.40;99.90
5621;DHT22;2832;50.864;12.186;2022-10-16T14:39:04;19.30;99.90
5621;DHT22;2832;50.864;12.186;2022-10-16T14:41:41;19.20;99.90
5621;DHT22;2832;50.864;12.186;2022-10-16T14:44:11;19.20;99.90
5621;DHT22;2832;50.864;12.186;2022-10-16T14:46:43;19.20;99.90
5621;DHT22;2832;50.864;12.186;2022-10-16T14:49:16;19.30;99.90
5621;DHT22;2832;50.864;12.186;2022-10-16T14:51:46;19.40;99.90
5621;DHT22;2832;50.864;12.186;2022-10-16T14:54:16;19.30;99.90
5621;DHT22;2832;50.864;12.186;2022-10-16T14:56:47;19.30;99.90
5621;DHT22;2832;50.864;12.186;2022-10-16T14:59:19;19.40;99.90
5621;DHT22;2832;50.864;12.186;2022-10-16T15:01:50;19.40;99.90
5621;DHT22;2832;50.864;12.186;2022-10-16T15:04:19;19.40;99.90
5621;DHT22;2832;50.864;12.186;2022-10-16T15:06:47;19.40;99.90
5621;DHT22;2832;50.864;12.186;2022-10-16T15:09:15;19.50;99.90
5621;DHT22;2832;50.864;12.186;2022-10-16T15:11:43;19.40;99.90
5621;DHT22;2832;50.864;12.186;2022-10-16T15:14:12;19.50;99.90
5621;DHT22;2832;50.864;12.186;2022-10-16T15:16:41;19.40;99.90
5621;DHT22;2832;50.864;12.186;2022-10-16T15:19:10;19.50;99.90
5621;DHT22;2832;50.864;12.186;2022-10-16T15:21:39;19.50;99.90
5621;DHT22;2832;50.864;12.186;2022-10-16T15:24:11;19.50;99.90
5621;DHT22;2832;50.864;12.186;2022-10-16T15:26:39;19.50;99.90
5621;DHT22;2832;50.864;12.186;2022-10-16T15:29:07;19.50;99.90
5621;DHT22;2832;50.864;12.186;2022-10-16T15:31:34;19.40;99.90
5621;DHT22;2832;50.864;12.186;2022-10-16T15:34:03;19.50;99.90
5621;DHT22;2832;50.864;12.186;2022-10-16T15:36:36;19.50;99.90
5621;DHT22;2832;50.864;12.186;2022-10-16T15:39:05;19.50;99.90
5621;DHT22;2832;50.864;12.186;2022-10-16T15:41:33;19.60;99.90
5621;DHT22;2832;50.864;12.186;2022-10-16T15:44:01;19.70;99.90
5621;DHT22;2832;50.864;12.186;2022-10-16T15:46:28;19.60;99.90
5621;DHT22;2832;50.864;12.186;2022-10-16T15:48:58;19.60;99.90
5621;DHT22;2832;50.864;12.186;2022-10-16T15:51:31;19.60;99.90
5621;DHT22;2832;50.864;12.186;2022-10-16T15:54:01;19.60;99.90
5621;DHT22;2832;50.864;12.186;2022-10-16T15:56:29;19.70;99.90
5621;DHT22;2832;50.864;12.186;2022-10-16T15:58:59;19.60;99.90
5621;DHT22;2832;50.864;12.186;2022-10-16T16:01:28;19.70;99.90
5621;DHT22;2832;50.864;12.186;2022-10-16T16:03:56;19.70;99.90
5621;DHT22;2832;50.864;12.186;2022-10-16T16:06:24;19.70;99.90
5621;DHT22;2832;50.864;12.186;2022-10-16T16:08:52;19.80;99.90
5621;DHT22;2832;50.864;12.186;2022-10-16T16:11:22;19.80;99.90
5621;DHT22;2832;50.864;12.186;2022-10-16T16:13:50;19.70;99.90
5621;DHT22;2832;50.864;12.186;2022-10-16T16:16:18;19.70;99.90
5621;DHT22;2832;50.864;12.186;2022-10-16T16:18:46;19.60;99.90
5621;DHT22;2832;50.864;12.186;2022-10-16T16:21:15;19.70;99.90